Terminal Aerodrome Forecast
Issued by NWS

Home | Current Version | Previous Version | Text Only | Print | Product List | Glossary On
Versions: 1 2 3 4 5 6 7 8 9 10 11 12 13
935
FTUS43 KAPX 292320
TAFMBL
TAF
KMBL 292320Z 3000/3024 05006KT P6SM SCT050 BKN250
     FM300300 10003KT P6SM SCT250
     FM301500 08008KT P6SM SCT250
     FM301900 02009KT P6SM FEW150 SCT250=

USA.gov is the U.S. government's official web portal to all federal, state and local government web resources and services.